Terminal Aerodrome Forecast
Issued by NWS Twin Cities, MN

Home | Current Version | Previous Version | Text Only | Print | Product List | Glossary On
Versions: 1 2 3 4 5 6 7 8 9 10 11 12 13 14 15 16 17 18 19 20 21 22
000
FTUS43 KMPX 182300
TAFSTC
TAF
KSTC 182330Z 1900/1924 16009KT P6SM FEW050
     FM190900 17011KT 6SM BR SCT008 BKN200
      TEMPO 1909/1911 4SM BR BKN008
     FM191100 17012KT 4SM BR OVC008
     FM191400 18015G22KT P6SM VCSH SCT008 OVC015
     FM191900 19014G20KT P6SM -SHRA SCT015 OVC025=

USA.gov is the U.S. government's official web portal to all federal, state and local government web resources and services.